createdAt,value
2023-03-26T00:00:51.856Z,89.01
2023-03-26T00:03:18.303Z,89.55
2023-03-26T00:05:45.933Z,89.51
2023-03-26T00:08:12.384Z,89.47
2023-03-26T00:10:40.451Z,89.35
2023-03-26T00:13:08.247Z,89.43
2023-03-26T00:15:36.556Z,89.38
2023-03-26T00:18:03.287Z,89.46
2023-03-26T00:20:30.956Z,88.97
2023-03-26T00:22:57.285Z,89.07
2023-03-26T00:25:23.779Z,88.84
2023-03-26T00:27:50.585Z,89.09
2023-03-26T00:30:17.103Z,89.27
2023-03-26T00:32:43.913Z,88.97
2023-03-26T00:35:20.322Z,89.37
2023-03-26T00:37:46.738Z,89.63
2023-03-26T00:40:13.414Z,90.12
2023-03-26T00:42:39.750Z,90.40
2023-03-26T00:45:07.176Z,89.74
2023-03-26T00:47:34.515Z,89.71
2023-03-26T00:50:00.913Z,89.63
2023-03-26T00:52:27.309Z,90.04
2023-03-26T00:54:54.732Z,90.01
2023-03-26T00:57:32.984Z,90.25
2023-03-26T01:00:01.815Z,90.14
2023-03-26T01:02:28.231Z,89.92
2023-03-26T01:04:58.118Z,89.57
2023-03-26T01:07:26.607Z,89.67
2023-03-26T01:09:53.909Z,90.16
2023-03-26T01:12:23.059Z,90.39
2023-03-26T01:14:52.089Z,90.49
2023-03-26T01:17:18.612Z,90.80
2023-03-26T01:20:09.693Z,90.89
2023-03-26T01:22:36.785Z,91.19
2023-03-26T01:25:03.742Z,90.97
2023-03-26T01:27:36.987Z,91.02
2023-03-26T01:30:23.665Z,91.24
2023-03-26T01:33:22.345Z,91.43
2023-03-26T01:36:10.082Z,91.42
2023-03-26T01:38:45.209Z,91.51
2023-03-26T01:41:23.311Z,90.87
2023-03-26T01:44:15.955Z,91.67
2023-03-26T01:46:43.401Z,91.22
2023-03-26T01:49:09.806Z,91.18
2023-03-26T01:51:36.220Z,90.98
2023-03-26T01:54:06.051Z,90.68
2023-03-26T01:56:59.553Z,90.47
2023-03-26T01:59:52.571Z,90.70
2023-03-26T02:02:26.564Z,90.58
2023-03-26T02:05:12.144Z,90.79
2023-03-26T02:07:41.444Z,90.90
2023-03-26T02:10:15.641Z,91.07
2023-03-26T02:12:44.145Z,91.56
2023-03-26T02:15:11.954Z,92.33
2023-03-26T02:17:38.801Z,92.43
2023-03-26T02:20:09.437Z,92.58
2023-03-26T02:22:39.610Z,92.67
2023-03-26T02:25:08.454Z,93.21
2023-03-26T02:27:35.673Z,92.98
2023-03-26T02:30:02.592Z,93.23
2023-03-26T02:32:29.363Z,93.64
2023-03-26T02:34:55.874Z,93.31
2023-03-26T02:37:22.210Z,93.11
2023-03-26T02:39:48.537Z,93.35
2023-03-26T02:42:14.894Z,94.06
2023-03-26T02:44:41.239Z,94.08
2023-03-26T02:47:07.758Z,94.07
2023-03-26T02:49:34.136Z,94.21
2023-03-26T02:52:01.009Z,94.33
2023-03-26T02:54:27.319Z,94.39
2023-03-26T02:56:53.698Z,93.62
2023-03-26T02:59:20.023Z,93.43
2023-03-26T03:01:46.344Z,93.52
2023-03-26T03:04:13.157Z,93.62
2023-03-26T03:06:40.657Z,93.18
2023-03-26T03:09:08.146Z,93.00
2023-03-26T03:11:35.044Z,92.82
2023-03-26T03:14:01.403Z,92.73
2023-03-26T03:16:27.826Z,92.95
2023-03-26T03:18:54.901Z,93.08
2023-03-26T03:21:25.398Z,92.83
2023-03-26T03:23:51.822Z,92.84
2023-03-26T03:26:21.054Z,92.72
2023-03-26T03:28:49.060Z,92.86
2023-03-26T03:31:17.009Z,92.75
2023-03-26T03:33:44.324Z,93.19
2023-03-26T03:36:20.491Z,93.14
2023-03-26T03:38:48.634Z,92.85
2023-03-26T03:41:15.209Z,92.93
2023-03-26T03:43:41.514Z,93.49
2023-03-26T03:46:07.874Z,94.06
2023-03-26T03:48:34.223Z,94.12
2023-03-26T03:51:00.527Z,94.62
2023-03-26T03:53:26.867Z,94.14
2023-03-26T03:55:54.631Z,94.14
2023-03-26T03:58:26.249Z,93.81
2023-03-26T04:00:52.847Z,94.29
2023-03-26T04:03:20.009Z,94.74
2023-03-26T04:06:00.242Z,94.68
2023-03-26T04:08:26.553Z,94.52
2023-03-26T04:10:52.898Z,94.19
2023-03-26T04:13:19.220Z,94.55
2023-03-26T04:15:45.579Z,94.55
2023-03-26T04:18:11.916Z,94.41
2023-03-26T04:20:40.519Z,94.41
2023-03-26T04:23:06.878Z,94.19
2023-03-26T04:25:34.122Z,94.45
2023-03-26T04:28:06.625Z,94.50
2023-03-26T04:30:34.625Z,94.71
2023-03-26T04:33:04.092Z,94.95
2023-03-26T04:35:33.972Z,95.03
2023-03-26T04:38:04.425Z,95.03
2023-03-26T04:40:30.808Z,95.54
2023-03-26T04:42:57.141Z,95.75
2023-03-26T04:45:23.867Z,95.73
2023-03-26T04:47:50.855Z,95.66
2023-03-26T04:50:17.570Z,95.57
2023-03-26T04:52:45.333Z,95.82
2023-03-26T04:55:21.478Z,95.75
2023-03-26T04:57:53.424Z,95.58
2023-03-26T05:00:19.925Z,95.81
2023-03-26T05:02:46.522Z,95.81
2023-03-26T05:05:12.836Z,95.80
2023-03-26T05:07:39.137Z,95.78
2023-03-26T05:10:06.013Z,95.96
2023-03-26T05:12:32.345Z,96.15
2023-03-26T05:14:58.710Z,95.85
2023-03-26T05:17:25.978Z,95.69
2023-03-26T05:19:52.408Z,95.63
2023-03-26T05:22:19.317Z,95.59
2023-03-26T05:24:45.676Z,95.65
2023-03-26T05:27:15.910Z,95.58
2023-03-26T05:29:42.815Z,95.54
2023-03-26T05:32:10.053Z,95.46
2023-03-26T05:34:36.394Z,95.28
2023-03-26T05:37:04.082Z,95.28
2023-03-26T05:39:30.375Z,95.53
2023-03-26T05:41:56.688Z,95.63
2023-03-26T05:44:22.991Z,95.53
2023-03-26T05:46:49.315Z,95.63
2023-03-26T05:49:15.629Z,95.76
2023-03-26T05:51:41.983Z,95.66
2023-03-26T05:54:08.289Z,95.70
2023-03-26T05:56:34.701Z,95.57
2023-03-26T05:59:01.135Z,95.26
2023-03-26T06:01:27.470Z,95.11
2023-03-26T06:03:53.902Z,94.98
2023-03-26T06:06:20.926Z,95.26
2023-03-26T06:09:02.594Z,94.58
2023-03-26T06:11:30.454Z,94.37
2023-03-26T06:13:56.853Z,94.49
2023-03-26T06:16:27.161Z,94.22
2023-03-26T06:18:57.384Z,94.17
2023-03-26T06:21:25.614Z,94.18
2023-03-26T06:23:52.742Z,94.06
2023-03-26T06:26:19.312Z,93.94
2023-03-26T06:28:45.618Z,94.14
2023-03-26T06:31:12.048Z,93.71
2023-03-26T06:33:38.529Z,93.72
2023-03-26T06:36:05.489Z,93.21
2023-03-26T06:38:31.936Z,93.13
2023-03-26T06:41:05.711Z,93.06
2023-03-26T06:43:32.162Z,92.87
2023-03-26T06:45:58.508Z,92.82
2023-03-26T06:48:24.818Z,92.88
2023-03-26T06:50:51.392Z,93.05
2023-03-26T06:53:18.020Z,92.62
2023-03-26T06:55:44.485Z,92.19
2023-03-26T06:58:12.127Z,92.47
2023-03-26T07:00:38.901Z,91.93
2023-03-26T07:03:06.008Z,91.53
2023-03-26T07:05:32.376Z,90.78
2023-03-26T07:07:58.707Z,89.96
2023-03-26T07:10:25.350Z,88.64
2023-03-26T07:12:53.230Z,87.82
2023-03-26T07:15:20.046Z,87.89
2023-03-26T07:17:46.766Z,87.37
2023-03-26T07:20:13.181Z,86.07
2023-03-26T07:22:39.920Z,85.67
2023-03-26T07:25:07.141Z,84.98
2023-03-26T07:27:40.838Z,84.34
2023-03-26T07:30:20.156Z,82.63
2023-03-26T07:33:06.149Z,81.57
2023-03-26T07:35:41.376Z,81.92
2023-03-26T07:38:37.072Z,81.70
2023-03-26T07:41:12.445Z,80.97
2023-03-26T07:44:03.100Z,80.15
2023-03-26T07:46:31.672Z,80.75
2023-03-26T07:48:58.689Z,80.00
2023-03-26T07:51:25.806Z,79.99
2023-03-26T07:53:52.568Z,80.08
2023-03-26T07:56:37.713Z,78.87
2023-03-26T07:59:27.553Z,78.74
2023-03-26T08:02:32.327Z,78.53
2023-03-26T08:05:20.131Z,76.94
2023-03-26T08:08:00.855Z,76.66
2023-03-26T08:10:37.112Z,76.41
2023-03-26T08:13:26.579Z,75.23
2023-03-26T08:16:14.038Z,74.82
2023-03-26T08:18:59.310Z,74.24
2023-03-26T08:21:30.368Z,74.56
2023-03-26T08:24:13.501Z,73.26
2023-03-26T08:26:55.844Z,72.01
2023-03-26T08:29:29.512Z,72.37
2023-03-26T08:31:56.303Z,72.36
2023-03-26T08:34:23.065Z,72.46
2023-03-26T08:36:49.394Z,72.16
2023-03-26T08:39:15.702Z,72.82
2023-03-26T08:42:09.735Z,72.71
2023-03-26T08:45:25.393Z,72.53
2023-03-26T08:48:19.432Z,75.06
2023-03-26T08:51:17.542Z,75.20
2023-03-26T08:53:56.619Z,75.50
2023-03-26T08:56:31.800Z,74.72
2023-03-26T08:59:25.262Z,73.41
2023-03-26T09:02:25.752Z,72.34
2023-03-26T09:05:12.024Z,71.56
2023-03-26T09:08:00.154Z,71.88
2023-03-26T09:10:38.779Z,73.34
2023-03-26T09:13:35.787Z,74.52
2023-03-26T09:16:43.147Z,77.17
2023-03-26T09:19:34.108Z,79.77
2023-03-26T09:22:12.222Z,80.87
2023-03-26T09:24:38.476Z,82.12
2023-03-26T09:27:18.790Z,82.80
2023-03-26T09:30:20.888Z,80.41
2023-03-26T09:33:11.650Z,80.15
2023-03-26T09:36:05.768Z,80.99
2023-03-26T09:38:53.607Z,81.29
2023-03-26T09:41:35.336Z,80.31
2023-03-26T09:44:35.993Z,80.04
2023-03-26T09:47:36.654Z,79.41
2023-03-26T09:50:42.785Z,78.34
2023-03-26T09:53:23.635Z,78.15
2023-03-26T09:56:08.840Z,77.72
2023-03-26T09:58:48.304Z,77.84
2023-03-26T10:01:24.730Z,79.74
2023-03-26T10:04:06.381Z,80.00
2023-03-26T10:06:41.782Z,76.71
2023-03-26T10:09:19.614Z,80.10
2023-03-26T10:12:02.433Z,78.46
2023-03-26T10:14:41.134Z,77.74
2023-03-26T10:17:31.904Z,76.24
2023-03-26T10:20:04.092Z,75.35
2023-03-26T10:22:39.255Z,75.83
2023-03-26T10:25:23.552Z,77.90
2023-03-26T10:28:27.061Z,76.40
2023-03-26T10:31:17.350Z,78.66
2023-03-26T10:34:05.003Z,78.08
2023-03-26T10:36:35.596Z,79.63
2023-03-26T10:39:07.761Z,80.85
2023-03-26T10:41:55.932Z,79.57
2023-03-26T10:44:43.897Z,77.25
2023-03-26T10:47:25.362Z,78.14
2023-03-26T10:49:59.568Z,77.31
2023-03-26T10:52:34.786Z,75.40
2023-03-26T10:55:18.281Z,74.61
2023-03-26T10:57:50.657Z,74.48
2023-03-26T11:00:21.485Z,76.04
2023-03-26T11:03:25.292Z,76.27
2023-03-26T11:06:30.389Z,74.69
2023-03-26T11:09:10.777Z,76.78
2023-03-26T11:11:53.359Z,73.71
2023-03-26T11:14:34.848Z,74.20
2023-03-26T11:17:39.612Z,75.45
2023-03-26T11:20:13.240Z,75.73
2023-03-26T11:22:54.162Z,75.24
2023-03-26T11:25:29.809Z,76.99
2023-03-26T11:28:29.820Z,76.91
2023-03-26T11:31:08.567Z,76.14
2023-03-26T11:33:45.351Z,75.09
2023-03-26T11:36:43.300Z,76.61
2023-03-26T11:39:13.719Z,77.30
2023-03-26T11:41:40.056Z,77.72
2023-03-26T11:44:22.303Z,76.17
2023-03-26T11:46:52.329Z,77.39
2023-03-26T11:49:21.987Z,77.66
2023-03-26T11:51:48.861Z,76.96
2023-03-26T11:54:15.288Z,78.43
2023-03-26T11:57:05.355Z,78.23
2023-03-26T11:59:55.790Z,80.13
2023-03-26T12:02:28.054Z,81.04
2023-03-26T12:05:08.080Z,81.27
2023-03-26T12:07:35.383Z,79.76
2023-03-26T12:10:17.864Z,80.66
2023-03-26T12:12:47.498Z,80.39
2023-03-26T12:15:16.026Z,80.91
2023-03-26T12:17:42.689Z,80.85
2023-03-26T12:20:24.541Z,80.01
2023-03-26T12:23:33.530Z,79.84
2023-03-26T12:26:11.790Z,80.66
2023-03-26T12:28:44.820Z,78.91
2023-03-26T12:31:12.940Z,79.00
2023-03-26T12:33:39.456Z,79.36
2023-03-26T12:36:21.012Z,77.98
2023-03-26T12:40:06.536Z,78.51
2023-03-26T12:42:36.727Z,78.24
2023-03-26T12:44:48.226Z,79.73
2023-03-26T12:48:01.409Z,78.96
2023-03-26T12:50:14.326Z,78.21
2023-03-26T12:52:56.064Z,78.96
2023-03-26T12:55:52.969Z,79.82
2023-03-26T12:58:33.972Z,80.89
2023-03-26T13:01:14.046Z,80.89
2023-03-26T13:04:10.182Z,80.70
2023-03-26T13:06:59.072Z,80.91
2023-03-26T13:10:02.161Z,80.84
2023-03-26T13:12:52.700Z,83.19
2023-03-26T13:15:30.050Z,84.18
2023-03-26T13:18:24.834Z,82.27
2023-03-26T13:21:00.866Z,83.22
2023-03-26T13:23:43.778Z,83.39
2023-03-26T13:26:17.884Z,82.83
2023-03-26T13:29:14.718Z,81.52
2023-03-26T13:32:18.173Z,81.61
2023-03-26T13:35:10.588Z,83.90
2023-03-26T13:37:55.269Z,84.24
2023-03-26T13:40:42.311Z,85.11
2023-03-26T13:43:17.882Z,87.06
2023-03-26T13:45:53.397Z,87.30
2023-03-26T13:48:26.472Z,88.30
2023-03-26T13:51:17.239Z,88.07
2023-03-26T13:53:52.105Z,88.10
2023-03-26T13:56:20.575Z,86.74
2023-03-26T13:58:53.070Z,86.40
2023-03-26T14:01:22.477Z,85.56
2023-03-26T14:03:55.862Z,85.70
2023-03-26T14:07:15.763Z,87.53
2023-03-26T14:10:08.463Z,87.21
2023-03-26T14:12:43.273Z,87.59
2023-03-26T14:15:24.221Z,87.66
2023-03-26T14:18:03.140Z,88.61
2023-03-26T14:21:04.838Z,88.72
2023-03-26T14:23:43.219Z,88.77
2023-03-26T14:26:19.470Z,91.22
2023-03-26T14:28:54.923Z,89.85
2023-03-26T14:31:47.775Z,91.04
2023-03-26T14:34:45.653Z,90.71
2023-03-26T14:37:42.616Z,90.70
2023-03-26T14:40:30.802Z,89.20
2023-03-26T14:43:09.373Z,88.95
2023-03-26T14:46:03.141Z,88.57
2023-03-26T14:48:53.918Z,88.40
2023-03-26T14:52:01.629Z,88.03
2023-03-26T14:54:32.088Z,88.38
2023-03-26T14:57:29.330Z,87.68
2023-03-26T15:00:20.063Z,87.48
2023-03-26T15:03:24.864Z,88.31
2023-03-26T15:06:11.653Z,88.04
2023-03-26T15:09:10.458Z,88.45
2023-03-26T15:12:14.510Z,87.47
2023-03-26T15:14:56.522Z,87.69
2023-03-26T15:17:31.936Z,87.20
2023-03-26T15:20:34.925Z,86.55
2023-03-26T15:23:25.826Z,87.25
2023-03-26T15:26:27.957Z,87.47
2023-03-26T15:29:21.716Z,88.06
2023-03-26T15:32:19.692Z,87.65
2023-03-26T15:35:16.564Z,85.60
2023-03-26T15:37:57.170Z,86.52
2023-03-26T15:40:47.617Z,87.26
2023-03-26T15:43:16.586Z,85.42
2023-03-26T15:45:49.180Z,84.51
2023-03-26T15:48:34.231Z,82.78
2023-03-26T15:51:31.886Z,82.56
2023-03-26T15:54:21.907Z,82.82
2023-03-26T15:56:54.302Z,81.47
2023-03-26T15:59:20.558Z,81.22
2023-03-26T16:02:00.393Z,81.33
2023-03-26T16:04:51.800Z,79.94
2023-03-26T16:08:09.745Z,80.71
2023-03-26T16:10:55.762Z,78.93
2023-03-26T16:13:22.185Z,77.12
2023-03-26T16:16:20.055Z,78.05
2023-03-26T16:19:18.524Z,78.87
2023-03-26T16:22:07.344Z,78.15
2023-03-26T16:24:36.522Z,78.99
2023-03-26T16:27:15.009Z,77.55
2023-03-26T16:30:00.018Z,75.92
2023-03-26T16:32:34.597Z,75.29
2023-03-26T16:35:34.816Z,75.05
2023-03-26T16:38:13.585Z,74.35
2023-03-26T16:40:58.314Z,75.59
2023-03-26T16:43:38.343Z,73.68
2023-03-26T16:46:42.445Z,74.51
2023-03-26T16:50:08.469Z,74.50
2023-03-26T16:52:49.992Z,74.94
2023-03-26T16:55:27.932Z,74.18
2023-03-26T16:58:29.292Z,72.93
2023-03-26T17:01:11.852Z,72.67
2023-03-26T17:03:50.983Z,72.18
2023-03-26T17:06:17.432Z,71.95
2023-03-26T17:08:58.371Z,71.94
2023-03-26T17:11:56.562Z,71.98
2023-03-26T17:14:44.346Z,70.66
2023-03-26T17:17:25.678Z,71.47
2023-03-26T17:20:07.385Z,71.15
2023-03-26T17:22:43.603Z,70.67
2023-03-26T17:25:34.544Z,70.57
2023-03-26T17:28:28.424Z,69.80
2023-03-26T17:31:18.337Z,70.69
2023-03-26T17:33:45.088Z,70.48
2023-03-26T17:36:11.465Z,70.77
2023-03-26T17:38:37.760Z,70.90
2023-03-26T17:41:05.461Z,70.89
2023-03-26T17:43:48.356Z,69.96
2023-03-26T17:46:32.211Z,69.70
2023-03-26T17:49:07.519Z,69.29
2023-03-26T17:51:57.938Z,69.58
2023-03-26T17:54:30.865Z,69.12
2023-03-26T17:57:03.584Z,70.08
2023-03-26T17:59:32.404Z,70.40
2023-03-26T18:02:02.684Z,70.50
2023-03-26T18:04:42.130Z,70.12
2023-03-26T18:07:46.078Z,69.45
2023-03-26T18:10:43.545Z,69.05
2023-03-26T18:13:26.881Z,68.98
2023-03-26T18:16:16.467Z,69.21
2023-03-26T18:18:50.778Z,69.69
2023-03-26T18:21:27.813Z,69.97
2023-03-26T18:23:54.201Z,69.34
2023-03-26T18:26:36.168Z,69.99
2023-03-26T18:29:16.338Z,68.51
2023-03-26T18:31:43.446Z,67.31
2023-03-26T18:34:17.904Z,68.15
2023-03-26T18:36:57.433Z,69.32
2023-03-26T18:39:23.880Z,70.13
2023-03-26T18:41:50.335Z,69.39
2023-03-26T18:44:18.571Z,68.06
2023-03-26T18:46:45.708Z,67.88
2023-03-26T18:49:14.595Z,67.66
2023-03-26T18:51:54.162Z,67.91
2023-03-26T18:54:23.803Z,68.97
2023-03-26T18:56:50.329Z,68.81
2023-03-26T18:59:34.260Z,69.04
2023-03-26T19:02:10.119Z,69.20
2023-03-26T19:04:36.723Z,69.42
2023-03-26T19:07:08.624Z,70.04
2023-03-26T19:09:35.280Z,70.05
2023-03-26T19:12:07.989Z,70.24
2023-03-26T19:14:50.182Z,70.31
2023-03-26T19:17:16.658Z,70.93
2023-03-26T19:19:43.143Z,70.29
2023-03-26T19:22:11.152Z,70.00
2023-03-26T19:24:38.158Z,70.86
2023-03-26T19:27:04.737Z,70.11
2023-03-26T19:29:35.740Z,70.96
2023-03-26T19:32:35.637Z,70.65
2023-03-26T19:35:01.995Z,70.91
2023-03-26T19:37:29.275Z,71.38
2023-03-26T19:40:02.759Z,70.44
2023-03-26T19:42:44.031Z,70.77
2023-03-26T19:45:17.958Z,71.49
2023-03-26T19:47:52.166Z,71.66
2023-03-26T19:50:27.439Z,71.97
2023-03-26T19:53:16.853Z,71.88
2023-03-26T19:55:59.310Z,72.63
2023-03-26T19:58:27.175Z,72.48
2023-03-26T20:00:53.695Z,72.48
2023-03-26T20:03:40.389Z,72.86
2023-03-26T20:06:10.162Z,72.59
2023-03-26T20:08:36.464Z,73.18
2023-03-26T20:11:02.818Z,73.25
2023-03-26T20:13:29.141Z,72.28
2023-03-26T20:16:06.596Z,72.86
2023-03-26T20:18:34.435Z,73.29
2023-03-26T20:21:00.962Z,72.82
2023-03-26T20:23:27.295Z,73.12
2023-03-26T20:25:53.717Z,72.93
2023-03-26T20:28:20.526Z,73.03
2023-03-26T20:30:48.536Z,73.32
2023-03-26T20:33:23.970Z,73.19
2023-03-26T20:35:50.296Z,73.03
2023-03-26T20:38:18.205Z,73.06
2023-03-26T20:40:44.701Z,73.38
2023-03-26T20:43:13.151Z,73.40
2023-03-26T20:45:40.093Z,73.12
2023-03-26T20:48:06.718Z,73.62
2023-03-26T20:50:35.811Z,73.34
2023-03-26T20:53:02.389Z,73.22
2023-03-26T20:55:28.902Z,73.59
2023-03-26T20:57:55.212Z,73.89
2023-03-26T21:00:21.722Z,74.22
2023-03-26T21:02:49.655Z,74.25
2023-03-26T21:05:16.121Z,74.46
2023-03-26T21:07:42.772Z,74.43
2023-03-26T21:10:13.727Z,74.62
2023-03-26T21:12:51.252Z,74.29
2023-03-26T21:15:23.540Z,74.47
2023-03-26T21:17:51.243Z,74.40
2023-03-26T21:20:18.957Z,74.26
2023-03-26T21:23:10.065Z,74.13
2023-03-26T21:25:48.229Z,74.23
2023-03-26T21:28:41.913Z,74.61
2023-03-26T21:31:14.632Z,74.27
2023-03-26T21:33:41.026Z,74.66
2023-03-26T21:36:08.050Z,74.56
2023-03-26T21:38:34.691Z,74.58
2023-03-26T21:41:01.713Z,74.54
2023-03-26T21:43:28.175Z,74.64
2023-03-26T21:45:55.184Z,74.37
2023-03-26T21:48:21.852Z,74.38
2023-03-26T21:50:48.405Z,74.48
2023-03-26T21:53:16.010Z,74.46
2023-03-26T21:56:16.510Z,74.72
2023-03-26T21:59:09.969Z,74.63
2023-03-26T22:01:55.105Z,74.62
2023-03-26T22:04:21.328Z,74.76
2023-03-26T22:06:56.692Z,74.41
2023-03-26T22:09:33.953Z,74.75
2023-03-26T22:12:02.541Z,75.03
2023-03-26T22:14:28.910Z,74.87
2023-03-26T22:16:55.413Z,74.62
2023-03-26T22:19:21.732Z,75.03
2023-03-26T22:21:48.178Z,74.77
2023-03-26T22:24:14.473Z,75.04
2023-03-26T22:26:40.905Z,74.86
2023-03-26T22:29:07.290Z,75.17
2023-03-26T22:31:33.691Z,75.13
2023-03-26T22:34:00.116Z,75.29
2023-03-26T22:36:26.464Z,75.51
2023-03-26T22:38:53.448Z,75.45
2023-03-26T22:41:19.805Z,75.55
2023-03-26T22:43:46.117Z,75.45
2023-03-26T22:46:12.447Z,75.61
2023-03-26T22:48:38.749Z,75.74
2023-03-26T22:51:07.401Z,75.50
2023-03-26T22:53:34.752Z,75.52
2023-03-26T22:56:01.384Z,75.64
2023-03-26T22:58:28.176Z,75.77
2023-03-26T23:01:09.248Z,75.83
2023-03-26T23:03:36.301Z,75.88
2023-03-26T23:06:06.726Z,75.89
2023-03-26T23:08:34.843Z,75.88
2023-03-26T23:11:01.648Z,75.61
2023-03-26T23:13:28.005Z,75.58
2023-03-26T23:15:55.757Z,75.50
2023-03-26T23:18:23.583Z,75.46
2023-03-26T23:20:57.395Z,75.61
2023-03-26T23:23:26.710Z,75.34
2023-03-26T23:25:56.992Z,75.49
2023-03-26T23:28:23.323Z,75.71
2023-03-26T23:30:51.401Z,75.50
2023-03-26T23:33:21.786Z,75.53
2023-03-26T23:35:49.826Z,75.35
2023-03-26T23:38:16.679Z,75.56
2023-03-26T23:40:44.428Z,75.33
2023-03-26T23:43:25.081Z,75.33
2023-03-26T23:45:52.161Z,75.55
2023-03-26T23:48:21.144Z,75.86
2023-03-26T23:50:48.724Z,75.70
2023-03-26T23:53:15.151Z,75.96
2023-03-26T23:55:41.464Z,76.00
2023-03-26T23:58:07.791Z,76.16
